الصفحة الرئيسية
METAR-TAF:

METAR-TAF

مطار :

أوشويا, الأرجنتين

دائرة عرض: 54-48S, خط طول: 068-19W, ارتفاع: 16 متر

مراقبة الطقس الحالي

تاريخ ووقت الإصدار 20 دقيقة قبل الساعة 00:00UTC
ريح 17 عقدة من الغرب تتزايد حتى 28 عقدة
درجة الحرارة 7°درجة مئوية
الرطوبة 76%
ضغط 1008 hPa
الرؤية 10 كم أو أكثر
غيوم متفرقة على ارتفاع 3800 قدم

METAR: SAWH 220000Z 26017G28KT 9999 SCT038 07/03 Q1008

زمن: 21:20 (00:20 UTC)

توقعات

تاريخ ووقت الإصدار 7ساعات و 20 دقيقة قبل الساعة 17:00UTC
التوقعات صالحة من21 الساعة 18 UTC إلى 22 الساعة 18 UTC
ريح 20 عقدة من الغرب/الجنوب الغربي
الرؤية 10 كم أو أكثر
غيوم مفككة على ارتفاع 3000 قدم
غيوم متفرقة على ارتفاع 4000 قدم
أصبح
من 21 الساعة 21 UTC إلى 21 الساعة 23 UTC
ريح 10 عقدة من الغرب/الشمال الغربي
مؤقت
من 22 الساعة 00 UTC إلى 22 الساعة 08 UTC
ريح 5 عقدةمن اتجاهات متغيرة
مؤقت
من 22 الساعة 08 UTC إلى 22 الساعة 12 UTC
الرؤية: 5000 متر
ملبد بالغيوم على ارتفاع 2000 قدم
زخات من المطر,

TAF: SAWH 211700Z 2118/2218 25020KT 9999 BKN030 SCT040 TX09/2118Z TN01/2210Z BECMG 2121/2123 30010KT TEMPO 2200/2208 VRB05KT TEMPO 2208/2212 5000 SHRA OVC020

أرصاد الطقس والتوقعات من أكثر من 4000 مطار (تقارير الطقس للمطار METAR والتنبؤ بالطقس بالمطارTAF).

المحطات المتاحة هي النقط الصفراء والحمراء على الخريطة.

حرك المؤشر فوق النقطة لمعرفة اسم المحطة.

ثم انقر لمعرفة أرصاد وتوقعات الطقس.

لتغيير الخارطة: اضغط على الأزرار الخضراء مع رمز الصليب الأسود للتكبير. على الزر الأخضر مع شرطة للتصغير، أو على الأسهم الخضراء للخرائط المجاورة.


METAR-TAF: